x

Western Caribbean - 195 Nm Wsw Of Negril Jamiaca (42057) Wave Buoy

11:50pm - Tue 4th Aug 2015 All times are UTC.

  • Sig Wave height 4.6ft
  • Swell Direction
  • Peak Period 7s
  • Average Period 5s
  • Wind
    16mph, 18mph gusts
  • Sea Temp 83°f
  • Air Temp 83°f
  • Sea Pressure 1013mb

More Historic Weather Station data

Upgrade to MSW Pro to gain access to the past 30 days of data for over 8000 Wavebouys and Weather Stations around the globe.

Join Pro

Comparision Forecast

View Surf forecast
   
Tue 08/04 11:50pm 4.5ft 7s 5s 16 18 mph 1013mb 83f 83f
10:50pm 4.5ft 8s 5s 13 18 mph 1012.6mb 83f 83f
9:50pm 4ft 8s 5s 20 25 mph 1012.1mb 83f 83f
8:50pm 4.5ft 8s 5s 13 18 mph 1012.5mb 83f 83f
7:50pm 4ft 8s 6s 13 16 mph 1012.9mb 83f 83f
6:50pm 4.5ft 8s 5s 13 16 mph 1013.2mb 83f 83f
5:50pm 5ft 7s 6s 16 18 mph 1013.6mb 83f 83f
4:50pm 5ft 7s 5s 13 18 mph 1014.1mb 83f 83f
3:50pm 5ft 8s 5s 16 18 mph 1014mb 83f 83f
2:50pm 4.5ft 8s 5s 16 18 mph 1013.8mb 82f 83f
1:50pm 4.5ft 8s 5s 18 20 mph 1013.8mb 82f 83f
12:50pm 4.5ft 8s 5s 20 22 mph 1013.2mb 82f 83f
11:50am 4.5ft 8s 5s 20 25 mph 1012.9mb 82f 83f
10:50am 4ft 8s 5s 16 20 mph 1012.6mb 82f 83f
9:50am 4ft 7s 5s 13 18 mph 1012.6mb 82f 83f
8:50am 4.5ft 8s 5s 13 18 mph 1012.5mb 82f 83f
7:50am 4.5ft 8s 5s 11 16 mph 1012.5mb 82f 82f
6:50am 4ft 7s 5s 13 16 mph 1012.9mb 83f 83f
5:50am 4.5ft 8s 5s 13 16 mph 1013.4mb 83f 83f
4:50am 3.5ft 8s  -  13 16 mph 1013.6mb 83f 83f
3:50am 3.5ft 8s 5s 13 16 mph 1013.6mb 83f 83f
2:50am 3.5ft 8s 5s 16 20 mph 1013.7mb 83f 83f
1:50am 3ft 8s 5s 13 16 mph 1013mb 83f 83f
12:50am 3ft 8s 5s 13 16 mph 1012.2mb 83f 83f
Mon 08/03 11:50pm 3.5ft 8s 5s 16
mph
1011.9mb 83f 83f
10:50pm 3.5ft 6s 5s 13 16 mph 1011.7mb 83f 83f
9:50pm 4ft 7s 5s 13
mph
1011.5mb 83f 83f
8:50pm 4ft 8s 5s 13 16 mph 1011.8mb 83f 83f
7:50pm 4ft 7s 5s 13 16 mph 1012.1mb 83f 83f
6:50pm 3.5ft 8s 5s 13 16 mph 1012.5mb 83f 83f
5:50pm 4ft 8s 5s 13
mph
1012.7mb 83f 83f
4:50pm 4.5ft 8s 5s 13
mph
1013mb 83f 83f
3:50pm 4.5ft 7s 5s 11
mph
1013.4mb 83f 83f
2:50pm 4.5ft 9s 5s 13 16 mph 1012.8mb 82f 83f
1:50pm 4.5ft 8s 5s 13 18 mph 1012.4mb 82f 83f
12:50pm 4.5ft 7s 5s 13 16 mph 1012.1mb 82f 83f
11:50am 5ft 8s 5s 13 16 mph 1011.9mb 82f 83f
10:50am 4.5ft 8s 5s 11 13 mph 1011.9mb 82f 82f
9:50am 4.5ft 8s 5s 13 16 mph 1011.7mb 83f 82f
8:50am 5ft 7s 5s 13 16 mph 1011.8mb 82f 82f
7:50am 4.5ft 7s 5s 13 16 mph 1011.6mb 83f 82f
6:50am 5ft 8s 5s 13 18 mph 1011.9mb 82f 82f
5:50am 5ft 8s 5s 13 16 mph 1012.4mb 83f 82f
4:50am 5.5ft 6s 5s 16 18 mph 1013mb 82f 83f
3:50am 6ft 8s 6s 18 22 mph 1013mb 83f 83f
2:50am 5ft 8s 5s 16 20 mph 1012.7mb 83f 83f
1:50am 5ft 8s 5s 16 20 mph 1012.1mb 83f 83f
12:50am 5ft 8s 5s 20 22 mph 1011.5mb 83f 83f
Sun 08/02 11:50pm 4.5ft 8s 5s 18 22 mph 1011.3mb 83f 83f
10:50pm 4.5ft 8s 5s 16 20 mph 1011.3mb 83f 83f
9:50pm 4.5ft 6s 5s 16 18 mph 1011mb 83f 83f
8:50pm 3.5ft 8s 5s 16 20 mph 1011.5mb 83f 83f
7:50pm 3.5ft 7s 5s 16 20 mph 1011.9mb 83f 83f
6:50pm 4ft 7s 5s 16 18 mph 1012.3mb 83f 83f
5:50pm 3.5ft 8s 5s 18 22 mph 1012.6mb 83f 83f
4:50pm 3.5ft 8s 5s 16 20 mph 1013.5mb 83f 83f
3:50pm 4ft 8s 5s 16 20 mph 1013.7mb 83f 83f
2:50pm 3.5ft 8s 5s 16 18 mph 1013.6mb 83f 83f
1:50pm 4ft 8s 5s 16 18 mph 1013mb 82f 83f
12:50pm 4ft 8s 5s 13 16 mph 1012.6mb 82f 83f
11:50am 3.5ft 7s 5s 11 16 mph 1012.3mb 82f 82f
10:50am 3.5ft 8s 5s 11 13 mph 1011.3mb 82f 82f
9:50am 4ft 8s 5s 13 18 mph 1011.4mb 82f 82f
8:50am 3.5ft 8s 5s 13 16 mph 1011.6mb 82f 82f
7:50am 3.5ft 8s 5s 16 18 mph 1011.9mb 82f 82f
6:50am 3.5ft 8s 5s 11 13 mph 1012.4mb 82f 82f
5:50am 3.5ft 8s 5s 13 18 mph 1012.9mb 82f 83f
4:50am 3.5ft 8s 5s 16
mph
1013.3mb 82f 83f
3:50am 3.5ft 8s 5s 13 16 mph 1013.6mb 82f 83f
2:50am 3.5ft 8s 5s 13 16 mph 1013mb 82f 83f
1:50am 3.5ft 8s 5s 13 16 mph 1012.8mb 82f 83f
12:50am 4ft 8s 5s 13 16 mph 1012.6mb 83f 83f
Sat 08/01 11:50pm 4.5ft 8s 5s 11 13 mph 1011.7mb 83f 83f
10:50pm 4.5ft 8s 5s 16 18 mph 1011.6mb 83f 83f
9:50pm 5ft 8s 5s 13 16 mph 1011.7mb 83f 83f
8:50pm 5ft 8s 5s 13 16 mph 1012.1mb 83f 83f
7:50pm 5.5ft 8s 5s 13 18 mph 1012.5mb 83f 83f
6:50pm 5ft 8s 5s 13 16 mph 1013.1mb 83f 83f
5:50pm 5ft 8s 5s 18 20 mph 1013.4mb 83f 83f
4:50pm 4.5ft 6s 5s 20 22 mph 1013.3mb 83f 83f
3:50pm 4.5ft 8s 5s 16 20 mph 1014.2mb 83f 83f
2:50pm 4.5ft 7s 5s 16 20 mph 1014.2mb 83f 83f
1:50pm 4ft 7s 5s 16 18 mph 1014.2mb 83f 83f
12:50pm 4ft 8s 5s 18 20 mph 1013.1mb 83f 83f
11:50am 4ft 6s 5s 16 20 mph 1012.8mb 83f 83f
10:50am 3.5ft 7s 5s 18 20 mph 1012.4mb 83f 82f
9:50am 4ft 8s 5s 18 22 mph 1012.3mb 83f 83f
8:50am 3.5ft 8s 5s 16 18 mph 1012.6mb 83f 83f
7:50am 4ft 8s 5s 18 20 mph 1012.5mb 82f 83f
6:50am 4ft 8s 5s 18 20 mph 1013.4mb 83f 83f
5:50am 4ft 8s 5s 18 20 mph 1013.9mb 83f 83f
4:50am 3.5ft 7s 5s 18 20 mph 1014.7mb 83f 83f
3:50am 4ft 8s 5s 16 18 mph 1014.9mb 83f 83f
2:50am 3.5ft 8s 5s 13 16 mph 1014.8mb 83f 83f
1:50am 3.5ft 8s 5s 16 18 mph 1014.2mb 83f 83f
12:50am 3.5ft 8s 5s 13 16 mph 1013.6mb 83f 83f